sensor_id;sensor_type;location;lat;lon;timestamp;pressure;altitude;pressure_sealevel;temperature;humidity
24558;BME280;12726;49.148;8.582;2023-03-04T00:00:58;101090.84;;;-0.64;88.94
24558;BME280;12726;49.148;8.582;2023-03-04T00:03:44;101096.38;;;-0.67;89.35
24558;BME280;12726;49.148;8.582;2023-03-04T00:06:29;101098.41;;;-0.71;89.65
24558;BME280;12726;49.148;8.582;2023-03-04T00:09:16;101104.69;;;-0.72;90.26
24558;BME280;12726;49.148;8.582;2023-03-04T00:12:01;101095.31;;;-0.76;90.61
24558;BME280;12726;49.148;8.582;2023-03-04T00:14:47;101101.81;;;-0.80;90.63
24558;BME280;12726;49.148;8.582;2023-03-04T00:17:32;101099.50;;;-0.85;90.52
24558;BME280;12726;49.148;8.582;2023-03-04T00:20:18;101104.94;;;-0.86;91.00
24558;BME280;12726;49.148;8.582;2023-03-04T00:23:03;101091.72;;;-0.86;91.33
24558;BME280;12726;49.148;8.582;2023-03-04T00:25:50;101100.72;;;-0.89;91.75
24558;BME280;12726;49.148;8.582;2023-03-04T00:28:35;101099.88;;;-0.89;91.80
24558;BME280;12726;49.148;8.582;2023-03-04T00:31:22;101089.56;;;-0.92;92.10
24558;BME280;12726;49.148;8.582;2023-03-04T00:34:07;101095.94;;;-0.95;92.29
24558;BME280;12726;49.148;8.582;2023-03-04T00:36:52;101106.03;;;-1.00;92.58
24558;BME280;12726;49.148;8.582;2023-03-04T00:39:44;101108.31;;;-1.06;92.85
24558;BME280;12726;49.148;8.582;2023-03-04T00:42:30;101096.41;;;-1.12;92.95
24558;BME280;12726;49.148;8.582;2023-03-04T00:45:16;101097.53;;;-1.14;93.42
24558;BME280;12726;49.148;8.582;2023-03-04T00:48:01;101096.41;;;-1.12;93.46
24558;BME280;12726;49.148;8.582;2023-03-04T00:50:46;101109.03;;;-1.15;93.90
24558;BME280;12726;49.148;8.582;2023-03-04T00:53:34;101103.41;;;-1.22;94.21
24558;BME280;12726;49.148;8.582;2023-03-04T00:56:19;101105.69;;;-1.29;94.23
24558;BME280;12726;49.148;8.582;2023-03-04T00:59:06;101109.16;;;-1.28;94.31
24558;BME280;12726;49.148;8.582;2023-03-04T01:01:51;101104.22;;;-1.33;94.60
24558;BME280;12726;49.148;8.582;2023-03-04T01:04:36;101101.00;;;-1.36;94.92
24558;BME280;12726;49.148;8.582;2023-03-04T01:07:22;101104.69;;;-1.39;94.70
24558;BME280;12726;49.148;8.582;2023-03-04T01:10:09;101110.09;;;-1.40;94.62
24558;BME280;12726;49.148;8.582;2023-03-04T01:12:55;101107.44;;;-1.40;94.89
24558;BME280;12726;49.148;8.582;2023-03-04T01:15:41;101109.97;;;-1.39;94.86
24558;BME280;12726;49.148;8.582;2023-03-04T01:18:27;101103.28;;;-1.43;95.00
24558;BME280;12726;49.148;8.582;2023-03-04T01:21:12;101106.25;;;-1.47;94.93
24558;BME280;12726;49.148;8.582;2023-03-04T01:23:57;101102.53;;;-1.45;94.95
24558;BME280;12726;49.148;8.582;2023-03-04T01:26:43;101108.78;;;-1.46;94.96
24558;BME280;12726;49.148;8.582;2023-03-04T01:29:28;101099.88;;;-1.56;95.26
24558;BME280;12726;49.148;8.582;2023-03-04T01:32:15;101109.09;;;-1.62;95.40
24558;BME280;12726;49.148;8.582;2023-03-04T01:35:00;101105.25;;;-1.69;96.02
24558;BME280;12726;49.148;8.582;2023-03-04T01:37:46;101107.19;;;-1.71;96.10
24558;BME280;12726;49.148;8.582;2023-03-04T01:40:31;101107.53;;;-1.75;96.28
24558;BME280;12726;49.148;8.582;2023-03-04T01:43:20;101094.69;;;-1.80;96.59
24558;BME280;12726;49.148;8.582;2023-03-04T01:46:08;101093.22;;;-1.84;96.53
24558;BME280;12726;49.148;8.582;2023-03-04T01:48:55;101097.16;;;-1.89;97.23
24558;BME280;12726;49.148;8.582;2023-03-04T01:51:42;101090.34;;;-1.92;96.85
24558;BME280;12726;49.148;8.582;2023-03-04T01:54:28;101091.41;;;-1.94;97.26
24558;BME280;12726;49.148;8.582;2023-03-04T01:57:19;101096.69;;;-1.94;96.81
24558;BME280;12726;49.148;8.582;2023-03-04T02:00:23;101088.13;;;-1.98;97.06
24558;BME280;12726;49.148;8.582;2023-03-04T02:03:10;101076.25;;;-2.04;96.98
24558;BME280;12726;49.148;8.582;2023-03-04T02:05:58;101085.28;;;-1.95;97.02
24558;BME280;12726;49.148;8.582;2023-03-04T02:08:43;101079.53;;;-2.00;96.78
24558;BME280;12726;49.148;8.582;2023-03-04T02:11:29;101080.19;;;-2.09;97.08
24558;BME280;12726;49.148;8.582;2023-03-04T02:14:16;101085.84;;;-2.14;97.21
24558;BME280;12726;49.148;8.582;2023-03-04T02:17:02;101069.16;;;-2.14;97.15
24558;BME280;12726;49.148;8.582;2023-03-04T02:19:51;101081.72;;;-2.18;98.28
24558;BME280;12726;49.148;8.582;2023-03-04T02:22:42;101072.38;;;-2.22;98.17
24558;BME280;12726;49.148;8.582;2023-03-04T02:25:34;101078.81;;;-2.26;98.30
24558;BME280;12726;49.148;8.582;2023-03-04T02:28:23;101077.00;;;-2.25;98.54
24558;BME280;12726;49.148;8.582;2023-03-04T02:31:20;101074.47;;;-2.27;98.73
24558;BME280;12726;49.148;8.582;2023-03-04T02:34:11;101067.03;;;-2.33;99.28
24558;BME280;12726;49.148;8.582;2023-03-04T02:36:57;101074.63;;;-2.28;99.39
24558;BME280;12726;49.148;8.582;2023-03-04T02:39:44;101068.72;;;-2.32;99.18
24558;BME280;12726;49.148;8.582;2023-03-04T02:42:29;101071.47;;;-2.33;99.15
24558;BME280;12726;49.148;8.582;2023-03-04T02:45:36;101066.66;;;-2.40;99.41
24558;BME280;12726;49.148;8.582;2023-03-04T02:48:22;101068.59;;;-2.42;99.38
24558;BME280;12726;49.148;8.582;2023-03-04T02:51:07;101064.84;;;-2.39;99.31
24558;BME280;12726;49.148;8.582;2023-03-04T02:53:53;101080.69;;;-2.39;99.65
24558;BME280;12726;49.148;8.582;2023-03-04T02:56:43;101078.72;;;-2.48;99.57
24558;BME280;12726;49.148;8.582;2023-03-04T02:59:29;101065.78;;;-2.51;99.78
24558;BME280;12726;49.148;8.582;2023-03-04T03:02:16;101067.28;;;-2.60;99.71
24558;BME280;12726;49.148;8.582;2023-03-04T03:05:01;101068.13;;;-2.59;99.89
24558;BME280;12726;49.148;8.582;2023-03-04T03:07:47;101069.41;;;-2.65;100.00
24558;BME280;12726;49.148;8.582;2023-03-04T03:10:32;101076.38;;;-2.64;100.00
24558;BME280;12726;49.148;8.582;2023-03-04T03:13:18;101073.84;;;-2.65;100.00
24558;BME280;12726;49.148;8.582;2023-03-04T03:16:04;101076.78;;;-2.70;100.00
24558;BME280;12726;49.148;8.582;2023-03-04T03:18:51;101071.13;;;-2.77;100.00
24558;BME280;12726;49.148;8.582;2023-03-04T03:21:36;101075.78;;;-2.80;100.00
24558;BME280;12726;49.148;8.582;2023-03-04T03:24:21;101068.84;;;-2.81;100.00
24558;BME280;12726;49.148;8.582;2023-03-04T03:27:07;101070.63;;;-2.82;100.00
24558;BME280;12726;49.148;8.582;2023-03-04T03:29:52;101072.53;;;-2.84;100.00
24558;BME280;12726;49.148;8.582;2023-03-04T03:32:38;101069.03;;;-2.84;100.00
24558;BME280;12726;49.148;8.582;2023-03-04T03:35:24;101063.66;;;-2.83;100.00
24558;BME280;12726;49.148;8.582;2023-03-04T03:38:10;101069.19;;;-2.86;100.00
24558;BME280;12726;49.148;8.582;2023-03-04T03:40:55;101074.56;;;-2.87;100.00
24558;BME280;12726;49.148;8.582;2023-03-04T03:43:41;101067.81;;;-2.91;100.00
24558;BME280;12726;49.148;8.582;2023-03-04T03:46:26;101061.28;;;-2.98;100.00
24558;BME280;12726;49.148;8.582;2023-03-04T03:49:12;101069.84;;;-2.95;100.00
24558;BME280;12726;49.148;8.582;2023-03-04T03:52:01;101062.03;;;-2.96;100.00
24558;BME280;12726;49.148;8.582;2023-03-04T03:54:46;101075.66;;;-3.02;100.00
24558;BME280;12726;49.148;8.582;2023-03-04T03:57:32;101075.97;;;-3.07;100.00
24558;BME280;12726;49.148;8.582;2023-03-04T04:00:18;101086.72;;;-3.10;100.00
24558;BME280;12726;49.148;8.582;2023-03-04T04:03:04;101079.88;;;-3.12;100.00
24558;BME280;12726;49.148;8.582;2023-03-04T04:05:49;101080.00;;;-3.14;100.00
24558;BME280;12726;49.148;8.582;2023-03-04T04:08:36;101085.28;;;-3.14;100.00
24558;BME280;12726;49.148;8.582;2023-03-04T04:11:21;101082.00;;;-3.18;100.00
24558;BME280;12726;49.148;8.582;2023-03-04T04:14:08;101090.63;;;-3.16;100.00
24558;BME280;12726;49.148;8.582;2023-03-04T04:16:54;101087.25;;;-3.18;100.00
24558;BME280;12726;49.148;8.582;2023-03-04T04:19:40;101093.47;;;-3.19;100.00
24558;BME280;12726;49.148;8.582;2023-03-04T04:22:25;101088.34;;;-3.20;100.00
24558;BME280;12726;49.148;8.582;2023-03-04T04:25:12;101091.91;;;-3.21;100.00
24558;BME280;12726;49.148;8.582;2023-03-04T04:27:57;101087.69;;;-3.24;100.00
24558;BME280;12726;49.148;8.582;2023-03-04T04:30:43;101082.63;;;-3.27;100.00
24558;BME280;12726;49.148;8.582;2023-03-04T04:33:28;101086.09;;;-3.26;100.00
24558;BME280;12726;49.148;8.582;2023-03-04T04:36:14;101086.25;;;-3.28;100.00
24558;BME280;12726;49.148;8.582;2023-03-04T04:38:59;101093.28;;;-3.28;100.00
24558;BME280;12726;49.148;8.582;2023-03-04T04:41:46;101089.81;;;-3.29;100.00
24558;BME280;12726;49.148;8.582;2023-03-04T04:44:32;101101.38;;;-3.31;100.00
24558;BME280;12726;49.148;8.582;2023-03-04T04:47:17;101093.28;;;-3.28;100.00
24558;BME280;12726;49.148;8.582;2023-03-04T04:50:03;101096.03;;;-3.30;100.00
24558;BME280;12726;49.148;8.582;2023-03-04T04:52:48;101096.88;;;-3.29;100.00
24558;BME280;12726;49.148;8.582;2023-03-04T04:55:34;101092.22;;;-3.26;100.00
24558;BME280;12726;49.148;8.582;2023-03-04T04:58:20;101097.38;;;-3.24;100.00
24558;BME280;12726;49.148;8.582;2023-03-04T05:01:06;101091.16;;;-3.23;100.00
24558;BME280;12726;49.148;8.582;2023-03-04T05:03:52;101097.47;;;-3.26;100.00
24558;BME280;12726;49.148;8.582;2023-03-04T05:06:38;101100.53;;;-3.32;100.00
24558;BME280;12726;49.148;8.582;2023-03-04T05:09:23;101098.22;;;-3.24;100.00
24558;BME280;12726;49.148;8.582;2023-03-04T05:12:08;101096.63;;;-3.26;100.00
24558;BME280;12726;49.148;8.582;2023-03-04T05:14:55;101085.69;;;-3.33;100.00
24558;BME280;12726;49.148;8.582;2023-03-04T05:17:40;101096.13;;;-3.31;100.00
24558;BME280;12726;49.148;8.582;2023-03-04T05:20:25;101098.84;;;-3.33;100.00
24558;BME280;12726;49.148;8.582;2023-03-04T05:23:11;101095.63;;;-3.36;100.00
24558;BME280;12726;49.148;8.582;2023-03-04T05:25:56;101097.72;;;-3.41;100.00
24558;BME280;12726;49.148;8.582;2023-03-04T05:28:41;101088.25;;;-3.44;100.00
24558;BME280;12726;49.148;8.582;2023-03-04T05:31:28;101097.94;;;-3.44;100.00
24558;BME280;12726;49.148;8.582;2023-03-04T05:34:13;101090.97;;;-3.45;100.00
24558;BME280;12726;49.148;8.582;2023-03-04T05:36:59;101092.25;;;-3.51;100.00
24558;BME280;12726;49.148;8.582;2023-03-04T05:39:44;101088.97;;;-3.55;100.00
24558;BME280;12726;49.148;8.582;2023-03-04T05:42:30;101106.69;;;-3.57;100.00
24558;BME280;12726;49.148;8.582;2023-03-04T05:45:15;101093.72;;;-3.60;100.00
24558;BME280;12726;49.148;8.582;2023-03-04T05:48:03;101098.13;;;-3.60;100.00
24558;BME280;12726;49.148;8.582;2023-03-04T05:50:52;101097.38;;;-3.62;100.00
24558;BME280;12726;49.148;8.582;2023-03-04T05:53:37;101107.19;;;-3.64;100.00
24558;BME280;12726;49.148;8.582;2023-03-04T05:56:23;101102.13;;;-3.67;100.00
24558;BME280;12726;49.148;8.582;2023-03-04T05:59:08;101105.72;;;-3.68;100.00
24558;BME280;12726;49.148;8.582;2023-03-04T06:01:54;101112.03;;;-3.71;100.00
24558;BME280;12726;49.148;8.582;2023-03-04T06:04:47;101098.75;;;-3.69;100.00
24558;BME280;12726;49.148;8.582;2023-03-04T06:07:34;101113.94;;;-3.60;100.00
24558;BME280;12726;49.148;8.582;2023-03-04T06:10:20;101112.38;;;-3.50;100.00
24558;BME280;12726;49.148;8.582;2023-03-04T06:13:05;101122.25;;;-3.41;100.00
24558;BME280;12726;49.148;8.582;2023-03-04T06:15:53;101125.09;;;-3.31;100.00
24558;BME280;12726;49.148;8.582;2023-03-04T06:18:39;101129.50;;;-3.19;100.00
24558;BME280;12726;49.148;8.582;2023-03-04T06:21:25;101128.84;;;-3.10;100.00
24558;BME280;12726;49.148;8.582;2023-03-04T06:24:11;101128.41;;;-2.91;100.00
24558;BME280;12726;49.148;8.582;2023-03-04T06:26:57;101135.25;;;-2.89;100.00
24558;BME280;12726;49.148;8.582;2023-03-04T06:29:42;101136.28;;;-2.79;100.00
24558;BME280;12726;49.148;8.582;2023-03-04T06:32:28;101135.31;;;-2.65;100.00
24558;BME280;12726;49.148;8.582;2023-03-04T06:35:14;101135.06;;;-2.62;100.00
24558;BME280;12726;49.148;8.582;2023-03-04T06:38:02;101139.28;;;-2.59;100.00
24558;BME280;12726;49.148;8.582;2023-03-04T06:40:47;101145.47;;;-2.48;100.00
24558;BME280;12726;49.148;8.582;2023-03-04T06:43:32;101146.69;;;-2.41;100.00
24558;BME280;12726;49.148;8.582;2023-03-04T06:46:17;101162.72;;;-2.31;100.00
24558;BME280;12726;49.148;8.582;2023-03-04T06:49:03;101151.03;;;-2.16;100.00
24558;BME280;12726;49.148;8.582;2023-03-04T06:51:48;101151.31;;;-2.08;100.00
24558;BME280;12726;49.148;8.582;2023-03-04T06:54:35;101150.63;;;-1.99;100.00
24558;BME280;12726;49.148;8.582;2023-03-04T06:57:20;101151.53;;;-1.76;100.00
24558;BME280;12726;49.148;8.582;2023-03-04T07:00:06;101152.13;;;-1.83;100.00
24558;BME280;12726;49.148;8.582;2023-03-04T07:02:52;101158.13;;;-1.81;100.00
24558;BME280;12726;49.148;8.582;2023-03-04T07:05:37;101152.66;;;-1.67;100.00
24558;BME280;12726;49.148;8.582;2023-03-04T07:08:23;101151.81;;;-1.68;100.00
24558;BME280;12726;49.148;8.582;2023-03-04T07:11:10;101155.78;;;-1.62;100.00
24558;BME280;12726;49.148;8.582;2023-03-04T07:13:55;101150.88;;;-1.55;100.00
24558;BME280;12726;49.148;8.582;2023-03-04T07:16:40;101145.75;;;-1.57;100.00
24558;BME280;12726;49.148;8.582;2023-03-04T07:19:26;101157.75;;;-1.42;100.00
24558;BME280;12726;49.148;8.582;2023-03-04T07:22:11;101162.22;;;-1.31;100.00
24558;BME280;12726;49.148;8.582;2023-03-04T07:24:56;101159.72;;;-1.22;100.00
24558;BME280;12726;49.148;8.582;2023-03-04T07:27:43;101164.53;;;-1.15;100.00
24558;BME280;12726;49.148;8.582;2023-03-04T07:30:28;101160.69;;;-1.00;100.00
24558;BME280;12726;49.148;8.582;2023-03-04T07:33:14;101163.22;;;-0.88;100.00
24558;BME280;12726;49.148;8.582;2023-03-04T07:35:59;101162.25;;;-0.87;100.00
24558;BME280;12726;49.148;8.582;2023-03-04T07:38:46;101162.59;;;-0.69;100.00
24558;BME280;12726;49.148;8.582;2023-03-04T07:41:32;101175.09;;;-0.71;100.00
24558;BME280;12726;49.148;8.582;2023-03-04T07:44:21;101181.81;;;-0.67;100.00
24558;BME280;12726;49.148;8.582;2023-03-04T07:47:06;101178.81;;;-0.51;100.00
24558;BME280;12726;49.148;8.582;2023-03-04T07:49:52;101177.00;;;-0.51;100.00
24558;BME280;12726;49.148;8.582;2023-03-04T07:52:37;101184.78;;;-0.38;100.00
24558;BME280;12726;49.148;8.582;2023-03-04T07:55:23;101171.19;;;-0.33;100.00
24558;BME280;12726;49.148;8.582;2023-03-04T07:58:08;101185.94;;;-0.20;100.00
24558;BME280;12726;49.148;8.582;2023-03-04T08:00:55;101184.97;;;-0.19;100.00
24558;BME280;12726;49.148;8.582;2023-03-04T08:03:40;101188.44;;;-0.07;100.00
24558;BME280;12726;49.148;8.582;2023-03-04T08:06:27;101185.31;;;-0.01;100.00
24558;BME280;12726;49.148;8.582;2023-03-04T08:09:12;101192.13;;;0.13;100.00
24558;BME280;12726;49.148;8.582;2023-03-04T08:11:57;101184.56;;;0.29;100.00
24558;BME280;12726;49.148;8.582;2023-03-04T08:14:43;101200.53;;;0.38;100.00
24558;BME280;12726;49.148;8.582;2023-03-04T08:17:29;101200.00;;;0.56;99.48
24558;BME280;12726;49.148;8.582;2023-03-04T08:20:15;101201.16;;;0.63;98.90
24558;BME280;12726;49.148;8.582;2023-03-04T08:23:00;101193.25;;;0.72;98.23
24558;BME280;12726;49.148;8.582;2023-03-04T08:25:46;101193.72;;;0.77;97.94
24558;BME280;12726;49.148;8.582;2023-03-04T08:28:32;101197.06;;;0.79;97.74
24558;BME280;12726;49.148;8.582;2023-03-04T08:31:18;101186.84;;;0.96;97.82
24558;BME280;12726;49.148;8.582;2023-03-04T08:34:05;101179.00;;;0.94;96.76
24558;BME280;12726;49.148;8.582;2023-03-04T08:36:53;101191.22;;;1.06;95.88
24558;BME280;12726;49.148;8.582;2023-03-04T08:39:38;101184.94;;;1.07;95.75
24558;BME280;12726;49.148;8.582;2023-03-04T08:42:24;101187.22;;;1.22;96.50
24558;BME280;12726;49.148;8.582;2023-03-04T08:45:10;101177.09;;;1.36;95.28
24558;BME280;12726;49.148;8.582;2023-03-04T08:47:55;101179.63;;;1.38;94.16
24558;BME280;12726;49.148;8.582;2023-03-04T08:50:43;101183.97;;;1.39;93.75
24558;BME280;12726;49.148;8.582;2023-03-04T08:53:29;101187.16;;;1.42;93.68
24558;BME280;12726;49.148;8.582;2023-03-04T08:56:14;101185.97;;;1.56;94.63
24558;BME280;12726;49.148;8.582;2023-03-04T08:59:00;101187.25;;;1.62;92.77
24558;BME280;12726;49.148;8.582;2023-03-04T09:01:45;101191.31;;;1.75;93.43
24558;BME280;12726;49.148;8.582;2023-03-04T09:04:31;101196.06;;;1.72;93.03
24558;BME280;12726;49.148;8.582;2023-03-04T09:07:18;101198.63;;;1.83;93.87
24558;BME280;12726;49.148;8.582;2023-03-04T09:10:03;101191.38;;;2.04;93.13
24558;BME280;12726;49.148;8.582;2023-03-04T09:12:49;101192.22;;;2.05;90.18
24558;BME280;12726;49.148;8.582;2023-03-04T09:15:34;101190.38;;;2.15;90.13
24558;BME280;12726;49.148;8.582;2023-03-04T09:18:21;101184.38;;;2.22;90.48
24558;BME280;12726;49.148;8.582;2023-03-04T09:21:07;101186.50;;;2.38;90.65
24558;BME280;12726;49.148;8.582;2023-03-04T09:23:54;101183.25;;;2.54;89.14
24558;BME280;12726;49.148;8.582;2023-03-04T09:26:39;101176.81;;;2.66;88.61
24558;BME280;12726;49.148;8.582;2023-03-04T09:29:24;101183.09;;;2.74;88.13
24558;BME280;12726;49.148;8.582;2023-03-04T09:32:09;101179.72;;;2.72;87.86
24558;BME280;12726;49.148;8.582;2023-03-04T09:34:55;101185.88;;;2.73;88.05
24558;BME280;12726;49.148;8.582;2023-03-04T09:37:40;101187.13;;;2.88;85.52
24558;BME280;12726;49.148;8.582;2023-03-04T09:40:29;101187.50;;;2.93;86.14
24558;BME280;12726;49.148;8.582;2023-03-04T09:43:20;101191.31;;;2.91;85.36
24558;BME280;12726;49.148;8.582;2023-03-04T09:46:11;101198.16;;;2.93;84.87
24558;BME280;12726;49.148;8.582;2023-03-04T09:48:59;101196.63;;;2.91;86.77
24558;BME280;12726;49.148;8.582;2023-03-04T09:51:50;101210.72;;;3.01;86.86
24558;BME280;12726;49.148;8.582;2023-03-04T09:54:52;101201.38;;;2.97;84.93
24558;BME280;12726;49.148;8.582;2023-03-04T09:57:48;101203.78;;;2.90;84.96
24558;BME280;12726;49.148;8.582;2023-03-04T10:00:38;101202.50;;;2.85;85.60
24558;BME280;12726;49.148;8.582;2023-03-04T10:03:31;101209.38;;;2.78;84.64
24558;BME280;12726;49.148;8.582;2023-03-04T10:06:22;101206.72;;;2.87;84.56
24558;BME280;12726;49.148;8.582;2023-03-04T10:09:10;101210.47;;;2.85;84.19
24558;BME280;12726;49.148;8.582;2023-03-04T10:12:01;101208.69;;;2.75;83.84
24558;BME280;12726;49.148;8.582;2023-03-04T10:14:51;101207.72;;;2.77;85.23
24558;BME280;12726;49.148;8.582;2023-03-04T10:17:39;101208.84;;;2.84;85.31
24558;BME280;12726;49.148;8.582;2023-03-04T10:20:31;101204.63;;;2.81;85.20
24558;BME280;12726;49.148;8.582;2023-03-04T10:23:25;101210.34;;;2.86;85.24
24558;BME280;12726;49.148;8.582;2023-03-04T10:26:13;101200.28;;;2.80;85.56
24558;BME280;12726;49.148;8.582;2023-03-04T10:28:59;101203.06;;;2.88;84.01
24558;BME280;12726;49.148;8.582;2023-03-04T10:31:47;101202.81;;;2.91;85.34
24558;BME280;12726;49.148;8.582;2023-03-04T10:34:33;101202.75;;;3.01;85.32
24558;BME280;12726;49.148;8.582;2023-03-04T10:37:19;101197.19;;;3.31;87.02
24558;BME280;12726;49.148;8.582;2023-03-04T10:40:17;101192.94;;;3.48;85.14
24558;BME280;12726;49.148;8.582;2023-03-04T10:43:02;101192.69;;;3.86;82.51
24558;BME280;12726;49.148;8.582;2023-03-04T10:45:54;101186.03;;;4.79;80.15
24558;BME280;12726;49.148;8.582;2023-03-04T10:48:42;101189.59;;;5.47;78.04
24558;BME280;12726;49.148;8.582;2023-03-04T10:51:29;101190.13;;;5.51;72.57
24558;BME280;12726;49.148;8.582;2023-03-04T10:54:30;101186.34;;;6.28;77.83
24558;BME280;12726;49.148;8.582;2023-03-04T10:57:17;101179.00;;;6.71;66.83
24558;BME280;12726;49.148;8.582;2023-03-04T11:00:24;101174.16;;;6.66;66.47
24558;BME280;12726;49.148;8.582;2023-03-04T11:03:23;101174.34;;;6.64;69.22
24558;BME280;12726;49.148;8.582;2023-03-04T11:06:16;101169.00;;;7.36;71.36
24558;BME280;12726;49.148;8.582;2023-03-04T11:09:02;101163.44;;;7.45;64.41
24558;BME280;12726;49.148;8.582;2023-03-04T11:11:48;101160.78;;;7.37;63.32
24558;BME280;12726;49.148;8.582;2023-03-04T11:14:36;101158.06;;;7.84;67.06
24558;BME280;12726;49.148;8.582;2023-03-04T11:17:26;101153.41;;;8.32;62.00
24558;BME280;12726;49.148;8.582;2023-03-04T11:20:16;101151.06;;;8.52;70.49
24558;BME280;12726;49.148;8.582;2023-03-04T11:23:05;101151.91;;;8.67;62.35
24558;BME280;12726;49.148;8.582;2023-03-04T11:25:59;101141.91;;;8.61;58.50
24558;BME280;12726;49.148;8.582;2023-03-04T11:28:49;101147.50;;;8.59;55.99
24558;BME280;12726;49.148;8.582;2023-03-04T11:31:39;101145.00;;;7.81;57.42
24558;BME280;12726;49.148;8.582;2023-03-04T11:34:33;101146.53;;;7.45;59.11
24558;BME280;12726;49.148;8.582;2023-03-04T11:37:24;101146.75;;;7.27;59.52
24558;BME280;12726;49.148;8.582;2023-03-04T11:40:20;101142.84;;;6.91;60.71
24558;BME280;12726;49.148;8.582;2023-03-04T11:43:13;101142.75;;;6.36;61.79
24558;BME280;12726;49.148;8.582;2023-03-04T11:46:28;101143.22;;;6.15;63.31
24558;BME280;12726;49.148;8.582;2023-03-04T11:52:34;101139.97;;;5.79;64.60
24558;BME280;12726;49.148;8.582;2023-03-04T11:55:30;101138.25;;;5.70;65.38
24558;BME280;12726;49.148;8.582;2023-03-04T11:58:36;101132.09;;;5.69;65.47
24558;BME280;12726;49.148;8.582;2023-03-04T12:01:31;101128.56;;;5.53;65.99
24558;BME280;12726;49.148;8.582;2023-03-04T12:04:39;101123.28;;;5.35;67.28
24558;BME280;12726;49.148;8.582;2023-03-04T12:07:42;101116.78;;;5.29;66.13
24558;BME280;12726;49.148;8.582;2023-03-04T12:10:38;101115.75;;;5.22;66.60
24558;BME280;12726;49.148;8.582;2023-03-04T12:13:38;101107.09;;;5.28;66.79
24558;BME280;12726;49.148;8.582;2023-03-04T12:19:51;101103.25;;;5.23;66.68
24558;BME280;12726;49.148;8.582;2023-03-04T12:22:43;101100.97;;;5.02;66.96
24558;BME280;12726;49.148;8.582;2023-03-04T12:25:41;101093.63;;;4.96;66.56
24558;BME280;12726;49.148;8.582;2023-03-04T12:28:41;101092.25;;;4.92;67.23
24558;BME280;12726;49.148;8.582;2023-03-04T12:31:40;101096.69;;;4.83;68.09
24558;BME280;12726;49.148;8.582;2023-03-04T12:34:32;101076.13;;;4.67;67.97
24558;BME280;12726;49.148;8.582;2023-03-04T12:37:31;101080.97;;;4.72;68.71
24558;BME280;12726;49.148;8.582;2023-03-04T12:40:31;101081.50;;;4.76;68.95
24558;BME280;12726;49.148;8.582;2023-03-04T12:43:29;101073.31;;;4.77;69.50
24558;BME280;12726;49.148;8.582;2023-03-04T12:46:25;101078.06;;;4.91;69.26
24558;BME280;12726;49.148;8.582;2023-03-04T12:49:33;101064.38;;;4.86;69.37
24558;BME280;12726;49.148;8.582;2023-03-04T12:52:32;101067.03;;;4.86;68.63
24558;BME280;12726;49.148;8.582;2023-03-04T12:55:29;101057.69;;;4.82;69.39
24558;BME280;12726;49.148;8.582;2023-03-04T12:58:20;101063.44;;;4.61;69.08
24558;BME280;12726;49.148;8.582;2023-03-04T13:01:14;101063.72;;;4.58;70.15
24558;BME280;12726;49.148;8.582;2023-03-04T13:04:10;101061.53;;;4.54;71.17
24558;BME280;12726;49.148;8.582;2023-03-04T13:07:09;101059.44;;;4.65;71.18
24558;BME280;12726;49.148;8.582;2023-03-04T13:09:58;101060.69;;;4.53;70.55
24558;BME280;12726;49.148;8.582;2023-03-04T13:12:46;101053.25;;;4.65;70.28
24558;BME280;12726;49.148;8.582;2023-03-04T13:15:35;101052.78;;;4.69;69.74
24558;BME280;12726;49.148;8.582;2023-03-04T13:18:32;101053.91;;;4.59;70.02
24558;BME280;12726;49.148;8.582;2023-03-04T13:21:21;101057.75;;;4.64;71.52
24558;BME280;12726;49.148;8.582;2023-03-04T13:24:42;101045.91;;;4.59;70.42
24558;BME280;12726;49.148;8.582;2023-03-04T13:27:44;101050.28;;;4.68;71.28
24558;BME280;12726;49.148;8.582;2023-03-04T13:36:54;101047.94;;;4.65;70.30
24558;BME280;12726;49.148;8.582;2023-03-04T13:39:39;101049.91;;;4.63;71.49
24558;BME280;12726;49.148;8.582;2023-03-04T13:42:39;101041.41;;;4.59;71.10
24558;BME280;12726;49.148;8.582;2023-03-04T13:45:31;101044.06;;;4.59;71.66
24558;BME280;12726;49.148;8.582;2023-03-04T13:48:29;101037.91;;;4.59;71.67
24558;BME280;12726;49.148;8.582;2023-03-04T13:51:18;101041.44;;;4.67;70.41
24558;BME280;12726;49.148;8.582;2023-03-04T13:54:13;101033.25;;;4.69;70.36
24558;BME280;12726;49.148;8.582;2023-03-04T13:57:17;101023.63;;;4.68;70.92
24558;BME280;12726;49.148;8.582;2023-03-04T14:00:05;101028.63;;;4.71;70.35
24558;BME280;12726;49.148;8.582;2023-03-04T14:02:55;101030.59;;;4.69;71.11
24558;BME280;12726;49.148;8.582;2023-03-04T14:05:41;101020.28;;;4.66;70.76
24558;BME280;12726;49.148;8.582;2023-03-04T14:08:28;101024.81;;;4.73;69.94
24558;BME280;12726;49.148;8.582;2023-03-04T14:11:15;101012.97;;;4.76;70.47
24558;BME280;12726;49.148;8.582;2023-03-04T14:14:04;101005.56;;;4.62;70.12
24558;BME280;12726;49.148;8.582;2023-03-04T14:16:53;101018.69;;;4.47;70.11
24558;BME280;12726;49.148;8.582;2023-03-04T14:19:44;101010.16;;;4.44;71.46
24558;BME280;12726;49.148;8.582;2023-03-04T14:22:31;101006.44;;;4.37;71.46
24558;BME280;12726;49.148;8.582;2023-03-04T14:25:23;101006.22;;;4.30;71.36
24558;BME280;12726;49.148;8.582;2023-03-04T14:28:11;101001.41;;;4.33;71.83
24558;BME280;12726;49.148;8.582;2023-03-04T14:30:57;101002.44;;;4.41;71.91
24558;BME280;12726;49.148;8.582;2023-03-04T14:33:47;100990.75;;;4.33;71.42
24558;BME280;12726;49.148;8.582;2023-03-04T14:36:34;101003.09;;;4.34;71.91
24558;BME280;12726;49.148;8.582;2023-03-04T14:39:21;101000.41;;;4.34;71.74
24558;BME280;12726;49.148;8.582;2023-03-04T14:42:12;100995.47;;;4.40;71.69
24558;BME280;12726;49.148;8.582;2023-03-04T14:44:59;100993.91;;;4.29;71.49
24558;BME280;12726;49.148;8.582;2023-03-04T14:47:45;100996.56;;;4.29;71.72
24558;BME280;12726;49.148;8.582;2023-03-04T14:50:31;100995.41;;;4.31;72.04
24558;BME280;12726;49.148;8.582;2023-03-04T14:53:20;100996.91;;;4.34;72.30